createdAt,value
2023-06-28T00:02:40.243Z,41.62
2023-06-28T00:07:37.581Z,41.45
2023-06-28T00:12:35.509Z,42.30
2023-06-28T00:17:32.369Z,42.13
2023-06-28T00:22:30.332Z,42.68
2023-06-28T00:27:27.630Z,42.47
2023-06-28T00:32:25.096Z,42.53
2023-06-28T00:37:22.025Z,43.09
2023-06-28T00:42:20.418Z,42.81
2023-06-28T00:47:19.374Z,43.17
2023-06-28T00:52:16.192Z,43.10
2023-06-28T00:57:13.332Z,43.56
2023-06-28T01:02:11.717Z,43.69
2023-06-28T01:07:09.469Z,43.70
2023-06-28T01:12:07.712Z,44.05
2023-06-28T01:17:05.360Z,44.06
2023-06-28T01:22:05.942Z,44.18
2023-06-28T01:27:05.133Z,44.50
2023-06-28T01:32:05.130Z,44.74
2023-06-28T01:37:03.986Z,44.96
2023-06-28T01:42:01.575Z,45.01
2023-06-28T01:46:59.432Z,44.89
2023-06-28T01:51:57.250Z,45.02
2023-06-28T01:56:54.107Z,45.04
2023-06-28T02:01:50.933Z,45.31
2023-06-28T02:06:48.769Z,45.19
2023-06-28T02:11:45.650Z,45.24
2023-06-28T02:16:42.513Z,45.63
2023-06-28T02:21:41.417Z,45.65
2023-06-28T02:26:38.923Z,45.92
2023-06-28T02:31:35.927Z,45.81
2023-06-28T02:36:33.129Z,45.90
2023-06-28T02:41:29.886Z,46.26
2023-06-28T02:46:27.460Z,46.09
2023-06-28T02:51:24.415Z,46.13
2023-06-28T02:56:23.646Z,46.30
2023-06-28T03:01:44.248Z,46.44
2023-06-28T03:06:41.505Z,46.66
2023-06-28T03:11:38.391Z,46.64
2023-06-28T03:16:35.323Z,46.89
2023-06-28T03:21:34.312Z,47.04
2023-06-28T03:26:31.697Z,46.98
2023-06-28T03:31:28.567Z,46.62
2023-06-28T03:36:28.148Z,46.58
2023-06-28T03:41:27.490Z,46.04
2023-06-28T03:46:24.625Z,45.90
2023-06-28T03:51:21.482Z,45.98
2023-06-28T03:56:18.417Z,45.83
2023-06-28T04:01:18.756Z,45.64
2023-06-28T04:06:15.548Z,45.29
2023-06-28T04:11:12.500Z,44.26
2023-06-28T04:16:09.324Z,42.10
2023-06-28T04:21:06.982Z,39.16
2023-06-28T04:26:04.071Z,36.88
2023-06-28T04:31:00.955Z,32.98
2023-06-28T04:35:58.462Z,31.50
2023-06-28T04:40:56.076Z,29.53
2023-06-28T04:45:56.239Z,27.78
2023-06-28T04:50:53.211Z,26.26
2023-06-28T04:55:50.080Z,25.53
2023-06-28T05:00:48.182Z,25.31
2023-06-28T05:05:45.518Z,25.68
2023-06-28T05:10:42.686Z,27.23
2023-06-28T05:15:39.660Z,27.70
2023-06-28T05:20:37.517Z,27.36
2023-06-28T05:25:34.395Z,26.21
2023-06-28T05:30:31.363Z,25.11
2023-06-28T05:35:28.308Z,24.22
2023-06-28T05:40:27.028Z,23.28
2023-06-28T05:45:24.132Z,22.47
2023-06-28T05:50:22.298Z,21.55
2023-06-28T05:55:19.257Z,20.88
2023-06-28T06:00:18.038Z,20.07
2023-06-28T06:05:15.407Z,19.05
2023-06-28T06:10:15.417Z,18.79
2023-06-28T06:15:12.929Z,18.53
2023-06-28T06:20:11.329Z,18.23
2023-06-28T06:25:09.111Z,17.46
2023-06-28T06:30:07.844Z,16.67
2023-06-28T06:35:07.313Z,17.24
2023-06-28T06:40:06.047Z,16.89
2023-06-28T06:45:02.962Z,16.51
2023-06-28T06:49:59.764Z,16.35
2023-06-28T06:54:56.593Z,15.60
2023-06-28T06:59:54.186Z,15.25
2023-06-28T07:04:51.165Z,14.67
2023-06-28T07:09:48.201Z,14.54
2023-06-28T07:14:45.044Z,14.56
2023-06-28T07:19:43.077Z,13.88
2023-06-28T07:24:39.876Z,14.22
2023-06-28T07:29:37.370Z,13.58
2023-06-28T07:34:34.192Z,13.13
2023-06-28T07:39:31.678Z,13.25
2023-06-28T07:44:28.435Z,13.42
2023-06-28T07:49:25.241Z,13.59
2023-06-28T07:54:33.069Z,13.10
2023-06-28T07:59:31.845Z,12.94
2023-06-28T08:04:29.008Z,12.91
2023-06-28T08:09:26.196Z,12.67
2023-06-28T08:14:22.991Z,13.00
2023-06-28T08:19:20.510Z,12.51
2023-06-28T08:24:17.986Z,13.39
2023-06-28T08:29:17.068Z,13.81
2023-06-28T08:34:16.313Z,13.39
2023-06-28T08:39:13.896Z,12.76
2023-06-28T08:44:13.693Z,13.47
2023-06-28T08:49:10.783Z,14.08
2023-06-28T08:54:08.816Z,14.73
2023-06-28T08:59:06.753Z,14.42
2023-06-28T09:04:05.708Z,14.45
2023-06-28T09:09:03.802Z,14.47
2023-06-28T09:14:00.608Z,14.81
2023-06-28T09:18:59.197Z,14.25
2023-06-28T09:23:56.149Z,14.31
2023-06-28T09:28:53.183Z,14.01
2023-06-28T09:33:57.728Z,13.73
2023-06-28T09:39:00.902Z,14.15
2023-06-28T09:44:02.663Z,13.31
2023-06-28T09:49:00.397Z,14.06
2023-06-28T09:54:01.782Z,14.39
2023-06-28T09:59:00.296Z,14.36
2023-06-28T10:03:58.913Z,14.73
2023-06-28T10:08:59.333Z,14.81
2023-06-28T10:13:56.684Z,14.85
2023-06-28T10:18:54.837Z,15.01
2023-06-28T10:23:52.689Z,15.53
2023-06-28T10:28:50.894Z,15.81
2023-06-28T10:33:48.817Z,16.23
2023-06-28T10:38:45.685Z,16.98
2023-06-28T10:43:42.922Z,18.06
2023-06-28T10:48:46.256Z,19.18
2023-06-28T10:53:52.365Z,21.23
2023-06-28T10:58:55.760Z,25.04
2023-06-28T11:03:53.889Z,27.75
2023-06-28T11:08:52.583Z,30.67
2023-06-28T11:13:50.294Z,32.38
2023-06-28T11:18:48.217Z,33.91
2023-06-28T11:23:47.185Z,35.18
2023-06-28T11:28:51.565Z,36.03
2023-06-28T11:33:51.261Z,36.89
2023-06-28T11:38:48.915Z,37.60
2023-06-28T11:43:47.484Z,38.00
2023-06-28T11:48:46.179Z,38.26
2023-06-28T11:53:49.713Z,38.31
2023-06-28T11:58:46.717Z,38.55
2023-06-28T12:03:43.653Z,38.73
2023-06-28T12:08:42.097Z,38.45
2023-06-28T12:13:39.919Z,38.03
2023-06-28T12:18:54.599Z,38.56
2023-06-28T12:23:51.603Z,39.83
2023-06-28T12:28:50.693Z,40.49
2023-06-28T12:33:53.812Z,42.30
2023-06-28T12:38:50.767Z,43.03
2023-06-28T12:43:57.296Z,42.79
2023-06-28T12:48:58.402Z,43.73
2023-06-28T12:53:55.128Z,44.71
2023-06-28T12:58:52.268Z,45.40
2023-06-28T13:03:55.339Z,45.89
2023-06-28T13:08:52.920Z,47.33
2023-06-28T13:13:51.022Z,47.64
2023-06-28T13:18:47.813Z,48.67
2023-06-28T13:23:45.636Z,48.01
2023-06-28T13:28:44.373Z,46.61
2023-06-28T13:33:41.282Z,46.45
2023-06-28T13:38:38.601Z,47.27
2023-06-28T13:43:36.615Z,46.62
2023-06-28T13:48:33.374Z,47.05
2023-06-28T13:53:30.698Z,47.60
2023-06-28T13:58:28.440Z,48.77
2023-06-28T14:03:26.080Z,49.21
2023-06-28T14:08:23.020Z,48.93
2023-06-28T14:13:19.905Z,49.06
2023-06-28T14:18:16.833Z,50.64
2023-06-28T14:23:14.365Z,50.91
2023-06-28T14:33:08.715Z,50.67
2023-06-28T14:38:05.959Z,51.61
2023-06-28T14:43:03.374Z,52.28
2023-06-28T14:48:00.419Z,54.03
2023-06-28T14:52:57.288Z,56.05
2023-06-28T14:57:53.991Z,59.68
2023-06-28T15:02:51.644Z,61.77
2023-06-28T15:07:48.645Z,67.09
2023-06-28T15:12:45.435Z,70.94
2023-06-28T15:17:42.357Z,73.05
2023-06-28T15:22:39.985Z,74.57
2023-06-28T15:27:38.449Z,76.53
2023-06-28T15:32:36.536Z,76.11
2023-06-28T15:37:34.807Z,76.42
2023-06-28T15:42:32.414Z,78.03
2023-06-28T15:47:29.164Z,78.33
2023-06-28T15:52:29.673Z,78.94
2023-06-28T15:57:26.529Z,80.02
2023-06-28T16:02:24.340Z,81.88
2023-06-28T16:07:21.717Z,82.78
2023-06-28T16:12:18.540Z,83.42
2023-06-28T16:17:16.717Z,83.19
2023-06-28T16:22:17.509Z,80.95
2023-06-28T16:27:20.052Z,81.36
2023-06-28T16:32:21.672Z,80.46
2023-06-28T16:37:24.028Z,81.50
2023-06-28T16:42:20.887Z,82.77
2023-06-28T16:47:23.119Z,84.14
2023-06-28T16:52:21.859Z,84.06
2023-06-28T16:57:19.120Z,84.41
2023-06-28T17:02:17.413Z,84.87
2023-06-28T17:07:15.565Z,83.96
2023-06-28T17:12:13.790Z,83.69
2023-06-28T17:17:10.622Z,84.78
2023-06-28T17:22:08.302Z,85.00
2023-06-28T17:27:05.937Z,83.42
2023-06-28T17:32:03.971Z,82.78
2023-06-28T17:37:00.857Z,81.39
2023-06-28T17:41:57.723Z,81.70
2023-06-28T17:46:54.569Z,81.79
2023-06-28T17:51:51.979Z,83.01
2023-06-28T17:56:48.816Z,80.31
2023-06-28T18:01:45.893Z,81.76
2023-06-28T18:06:42.820Z,83.24
2023-06-28T18:11:40.426Z,83.76
2023-06-28T18:16:38.868Z,84.85
2023-06-28T18:21:35.637Z,85.73
2023-06-28T18:26:32.377Z,85.83
2023-06-28T18:31:29.946Z,86.02
2023-06-28T18:36:26.703Z,87.43
2023-06-28T18:41:24.077Z,88.36
2023-06-28T18:46:20.938Z,88.22
2023-06-28T18:51:19.237Z,88.11
2023-06-28T18:56:18.392Z,88.44
2023-06-28T19:01:15.186Z,87.57
2023-06-28T19:06:12.087Z,87.47
2023-06-28T19:11:09.570Z,86.61
2023-06-28T19:16:06.480Z,85.51
2023-06-28T19:21:03.480Z,85.52
2023-06-28T19:26:00.432Z,85.05
2023-06-28T19:30:58.095Z,84.52
2023-06-28T19:35:55.038Z,84.52
2023-06-28T19:40:51.857Z,84.17
2023-06-28T19:45:48.718Z,83.56
2023-06-28T19:50:46.441Z,83.23
2023-06-28T19:55:46.674Z,82.79
2023-06-28T20:00:44.022Z,82.16
2023-06-28T20:05:41.363Z,82.26
2023-06-28T20:10:38.936Z,81.70
2023-06-28T20:15:35.786Z,81.17
2023-06-28T20:20:32.562Z,80.29
2023-06-28T20:25:29.432Z,80.27
2023-06-28T20:30:26.892Z,79.91
2023-06-28T20:35:24.940Z,79.57
2023-06-28T20:40:23.127Z,79.46
2023-06-28T20:45:21.848Z,79.35
2023-06-28T20:50:19.527Z,79.07
2023-06-28T20:55:16.397Z,78.85
2023-06-28T21:00:15.942Z,78.95
2023-06-28T21:05:12.897Z,78.82
2023-06-28T21:10:11.000Z,78.94
2023-06-28T21:15:09.236Z,78.50
2023-06-28T21:20:09.327Z,77.61
2023-06-28T21:25:06.944Z,77.38
2023-06-28T21:30:07.096Z,76.44
2023-06-28T21:35:04.194Z,75.90
2023-06-28T21:40:00.960Z,74.74
2023-06-28T21:44:57.704Z,75.06
2023-06-28T21:49:55.176Z,74.82
2023-06-28T21:54:51.951Z,74.17
2023-06-28T21:59:48.983Z,73.86
2023-06-28T22:04:45.885Z,74.16
2023-06-28T22:09:45.384Z,74.29
2023-06-28T22:14:45.949Z,74.87
2023-06-28T22:19:42.761Z,74.51
2023-06-28T22:24:39.595Z,74.51
2023-06-28T22:29:38.175Z,74.45
2023-06-28T22:34:34.966Z,73.40
2023-06-28T22:39:31.779Z,73.60
2023-06-28T22:44:28.555Z,73.87
2023-06-28T22:49:27.060Z,73.99
2023-06-28T22:54:26.615Z,73.68
2023-06-28T22:59:23.494Z,73.64
2023-06-28T23:04:20.263Z,73.90
2023-06-28T23:09:17.741Z,74.04
2023-06-28T23:14:15.214Z,73.87
2023-06-28T23:19:11.996Z,73.93
2023-06-28T23:24:08.867Z,73.98
2023-06-28T23:29:06.402Z,73.76
2023-06-28T23:34:03.270Z,74.15
2023-06-28T23:39:00.150Z,73.53
2023-06-28T23:44:01.748Z,73.30
2023-06-28T23:49:00.978Z,73.74
2023-06-28T23:54:00.476Z,73.76
2023-06-28T23:58:57.738Z,73.66
